sensor_id;sensor_type;location;lat;lon;timestamp;pressure;altitude;pressure_sealevel;temperature;humidity
45731;BME280;31440;48.584;13.460;2022-11-11T00:01:15;98370.13;;;3.14;100.00
45731;BME280;31440;48.584;13.460;2022-11-11T00:04:00;98365.94;;;3.22;100.00
45731;BME280;31440;48.584;13.460;2022-11-11T00:06:46;98370.25;;;3.23;100.00
45731;BME280;31440;48.584;13.460;2022-11-11T00:09:30;98370.81;;;3.04;100.00
45731;BME280;31440;48.584;13.460;2022-11-11T00:12:14;98369.78;;;2.91;100.00
45731;BME280;31440;48.584;13.460;2022-11-11T00:14:58;98368.28;;;3.07;100.00
45731;BME280;31440;48.584;13.460;2022-11-11T00:17:42;98372.47;;;2.99;100.00
45731;BME280;31440;48.584;13.460;2022-11-11T00:20:45;98373.97;;;2.86;100.00
45731;BME280;31440;48.584;13.460;2022-11-11T00:23:47;98367.13;;;2.86;100.00
45731;BME280;31440;48.584;13.460;2022-11-11T00:26:50;98370.50;;;2.84;100.00
45731;BME280;31440;48.584;13.460;2022-11-11T00:29:35;98371.69;;;3.04;100.00
45731;BME280;31440;48.584;13.460;2022-11-11T00:32:20;98372.31;;;2.89;100.00
45731;BME280;31440;48.584;13.460;2022-11-11T00:35:07;98369.91;;;2.99;100.00
45731;BME280;31440;48.584;13.460;2022-11-11T00:38:12;98372.78;;;2.64;100.00
45731;BME280;31440;48.584;13.460;2022-11-11T00:41:18;98374.56;;;2.70;100.00
45731;BME280;31440;48.584;13.460;2022-11-11T00:44:03;98374.66;;;2.74;100.00
45731;BME280;31440;48.584;13.460;2022-11-11T00:46:47;98385.66;;;2.67;100.00
45731;BME280;31440;48.584;13.460;2022-11-11T00:49:50;98382.38;;;2.26;100.00
45731;BME280;31440;48.584;13.460;2022-11-11T00:52:53;98381.91;;;2.48;100.00
45731;BME280;31440;48.584;13.460;2022-11-11T00:55:38;98386.31;;;2.56;100.00
45731;BME280;31440;48.584;13.460;2022-11-11T00:58:23;98380.00;;;2.88;100.00
45731;BME280;31440;48.584;13.460;2022-11-11T01:01:07;98373.88;;;2.78;100.00
45731;BME280;31440;48.584;13.460;2022-11-11T01:03:51;98372.97;;;2.76;100.00
45731;BME280;31440;48.584;13.460;2022-11-11T01:06:35;98375.47;;;2.72;100.00
45731;BME280;31440;48.584;13.460;2022-11-11T01:09:20;98373.94;;;2.84;100.00
45731;BME280;31440;48.584;13.460;2022-11-11T01:12:04;98363.94;;;3.03;100.00
45731;BME280;31440;48.584;13.460;2022-11-11T01:14:48;98364.09;;;3.12;100.00
45731;BME280;31440;48.584;13.460;2022-11-11T01:17:32;98364.78;;;3.02;100.00
45731;BME280;31440;48.584;13.460;2022-11-11T01:20:16;98370.59;;;2.88;100.00
45731;BME280;31440;48.584;13.460;2022-11-11T01:23:00;98371.06;;;2.66;100.00
45731;BME280;31440;48.584;13.460;2022-11-11T01:25:45;98368.63;;;2.72;100.00
45731;BME280;31440;48.584;13.460;2022-11-11T01:28:29;98371.13;;;2.69;100.00
45731;BME280;31440;48.584;13.460;2022-11-11T01:31:15;98373.66;;;2.68;100.00
45731;BME280;31440;48.584;13.460;2022-11-11T01:34:00;98383.78;;;2.57;100.00
45731;BME280;31440;48.584;13.460;2022-11-11T01:36:44;98378.47;;;2.48;100.00
45731;BME280;31440;48.584;13.460;2022-11-11T01:39:28;98378.19;;;2.30;100.00
45731;BME280;31440;48.584;13.460;2022-11-11T01:42:12;98375.66;;;2.34;100.00
45731;BME280;31440;48.584;13.460;2022-11-11T01:44:56;98366.81;;;2.65;100.00
45731;BME280;31440;48.584;13.460;2022-11-11T01:47:41;98363.84;;;2.42;100.00
45731;BME280;31440;48.584;13.460;2022-11-11T01:50:44;98361.91;;;2.31;100.00
45731;BME280;31440;48.584;13.460;2022-11-11T01:53:28;98353.63;;;1.99;100.00
45731;BME280;31440;48.584;13.460;2022-11-11T01:56:12;98354.63;;;2.05;100.00
45731;BME280;31440;48.584;13.460;2022-11-11T01:59:01;98365.69;;;2.03;100.00
45731;BME280;31440;48.584;13.460;2022-11-11T02:01:46;98363.84;;;1.97;100.00
45731;BME280;31440;48.584;13.460;2022-11-11T02:04:32;98353.97;;;2.17;100.00
45731;BME280;31440;48.584;13.460;2022-11-11T02:07:35;98360.50;;;2.46;100.00
45731;BME280;31440;48.584;13.460;2022-11-11T02:10:23;98352.72;;;2.42;100.00
45731;BME280;31440;48.584;13.460;2022-11-11T02:13:12;98358.78;;;2.48;100.00
45731;BME280;31440;48.584;13.460;2022-11-11T02:16:16;98366.06;;;2.23;100.00
45731;BME280;31440;48.584;13.460;2022-11-11T02:19:00;98363.34;;;2.15;100.00
45731;BME280;31440;48.584;13.460;2022-11-11T02:21:56;98373.97;;;2.35;100.00
45731;BME280;31440;48.584;13.460;2022-11-11T02:24:42;98373.66;;;2.18;100.00
45731;BME280;31440;48.584;13.460;2022-11-11T02:27:28;98380.75;;;2.30;100.00
45731;BME280;31440;48.584;13.460;2022-11-11T02:30:15;98379.81;;;2.26;100.00
45731;BME280;31440;48.584;13.460;2022-11-11T02:33:00;98364.47;;;2.29;100.00
45731;BME280;31440;48.584;13.460;2022-11-11T02:35:50;98360.75;;;2.12;100.00
45731;BME280;31440;48.584;13.460;2022-11-11T02:38:39;98375.53;;;2.27;100.00
45731;BME280;31440;48.584;13.460;2022-11-11T02:41:23;98373.66;;;2.18;100.00
45731;BME280;31440;48.584;13.460;2022-11-11T02:44:26;98380.19;;;2.01;100.00
45731;BME280;31440;48.584;13.460;2022-11-11T02:47:10;98378.47;;;2.01;100.00
45731;BME280;31440;48.584;13.460;2022-11-11T02:49:55;98378.00;;;2.21;100.00
45731;BME280;31440;48.584;13.460;2022-11-11T02:52:39;98379.78;;;2.25;100.00
45731;BME280;31440;48.584;13.460;2022-11-11T02:55:23;98394.03;;;2.09;100.00
45731;BME280;31440;48.584;13.460;2022-11-11T02:58:07;98397.13;;;1.94;100.00
45731;BME280;31440;48.584;13.460;2022-11-11T03:00:52;98391.28;;;2.00;100.00
45731;BME280;31440;48.584;13.460;2022-11-11T03:03:36;98392.28;;;2.54;100.00
45731;BME280;31440;48.584;13.460;2022-11-11T03:06:20;98404.09;;;2.00;100.00
45731;BME280;31440;48.584;13.460;2022-11-11T03:09:04;98409.19;;;1.98;100.00
45731;BME280;31440;48.584;13.460;2022-11-11T03:11:48;98409.44;;;2.09;100.00
45731;BME280;31440;48.584;13.460;2022-11-11T03:14:33;98417.66;;;1.93;100.00
45731;BME280;31440;48.584;13.460;2022-11-11T03:17:17;98407.19;;;1.83;100.00
45731;BME280;31440;48.584;13.460;2022-11-11T03:20:20;98397.53;;;1.70;100.00
45731;BME280;31440;48.584;13.460;2022-11-11T03:23:22;98399.47;;;1.82;100.00
45731;BME280;31440;48.584;13.460;2022-11-11T03:26:07;98405.84;;;1.60;100.00
45731;BME280;31440;48.584;13.460;2022-11-11T03:28:52;98398.19;;;1.62;100.00
45731;BME280;31440;48.584;13.460;2022-11-11T03:31:35;98393.38;;;1.75;100.00
45731;BME280;31440;48.584;13.460;2022-11-11T03:34:20;98396.84;;;1.79;100.00
45731;BME280;31440;48.584;13.460;2022-11-11T03:37:07;98397.41;;;2.06;100.00
45731;BME280;31440;48.584;13.460;2022-11-11T03:40:11;98397.50;;;2.11;100.00
45731;BME280;31440;48.584;13.460;2022-11-11T03:42:55;98391.44;;;2.07;100.00
45731;BME280;31440;48.584;13.460;2022-11-11T03:45:40;98396.00;;;2.22;100.00
45731;BME280;31440;48.584;13.460;2022-11-11T03:48:26;98391.88;;;2.32;100.00
45731;BME280;31440;48.584;13.460;2022-11-11T03:51:10;98386.13;;;1.98;100.00
45731;BME280;31440;48.584;13.460;2022-11-11T03:53:54;98386.75;;;2.32;100.00
45731;BME280;31440;48.584;13.460;2022-11-11T03:56:39;98393.78;;;2.42;100.00
45731;BME280;31440;48.584;13.460;2022-11-11T03:59:23;98381.44;;;2.21;100.00
45731;BME280;31440;48.584;13.460;2022-11-11T04:02:11;98389.38;;;2.35;100.00
45731;BME280;31440;48.584;13.460;2022-11-11T04:05:14;98389.13;;;2.21;100.00
45731;BME280;31440;48.584;13.460;2022-11-11T04:08:19;98383.84;;;2.13;100.00
45731;BME280;31440;48.584;13.460;2022-11-11T04:11:25;98374.03;;;1.91;100.00
45731;BME280;31440;48.584;13.460;2022-11-11T04:14:11;98386.25;;;2.04;100.00
45731;BME280;31440;48.584;13.460;2022-11-11T04:17:14;98382.16;;;2.15;100.00
45731;BME280;31440;48.584;13.460;2022-11-11T04:19:59;98384.28;;;2.38;100.00
45731;BME280;31440;48.584;13.460;2022-11-11T04:23:02;98385.09;;;2.35;100.00
45731;BME280;31440;48.584;13.460;2022-11-11T04:25:46;98390.69;;;2.60;100.00
45731;BME280;31440;48.584;13.460;2022-11-11T04:28:33;98396.44;;;2.46;100.00
45731;BME280;31440;48.584;13.460;2022-11-11T04:31:36;98399.22;;;2.12;100.00
45731;BME280;31440;48.584;13.460;2022-11-11T04:34:20;98412.97;;;2.15;100.00
45731;BME280;31440;48.584;13.460;2022-11-11T04:37:05;98407.59;;;2.03;100.00
45731;BME280;31440;48.584;13.460;2022-11-11T04:39:49;98412.91;;;1.70;100.00
45731;BME280;31440;48.584;13.460;2022-11-11T04:42:52;98414.78;;;1.79;100.00
45731;BME280;31440;48.584;13.460;2022-11-11T04:45:36;98411.59;;;1.89;100.00
45731;BME280;31440;48.584;13.460;2022-11-11T04:48:21;98417.91;;;2.05;100.00
45731;BME280;31440;48.584;13.460;2022-11-11T04:51:06;98434.00;;;1.98;100.00
45731;BME280;31440;48.584;13.460;2022-11-11T04:53:50;98441.63;;;1.95;100.00
45731;BME280;31440;48.584;13.460;2022-11-11T04:56:34;98439.06;;;1.95;100.00
45731;BME280;31440;48.584;13.460;2022-11-11T04:59:30;98436.00;;;2.11;100.00
45731;BME280;31440;48.584;13.460;2022-11-11T05:02:15;98435.84;;;2.05;100.00
45731;BME280;31440;48.584;13.460;2022-11-11T05:05:17;98438.88;;;2.28;100.00
45731;BME280;31440;48.584;13.460;2022-11-11T05:08:01;98434.13;;;2.04;100.00
45731;BME280;31440;48.584;13.460;2022-11-11T05:11:04;98437.59;;;2.06;100.00
45731;BME280;31440;48.584;13.460;2022-11-11T05:13:49;98435.16;;;2.12;100.00
45731;BME280;31440;48.584;13.460;2022-11-11T05:16:54;98436.78;;;2.08;100.00
45731;BME280;31440;48.584;13.460;2022-11-11T05:19:57;98436.34;;;2.29;100.00
45731;BME280;31440;48.584;13.460;2022-11-11T05:23:17;98436.91;;;2.16;100.00
45731;BME280;31440;48.584;13.460;2022-11-11T05:26:00;98436.91;;;2.16;100.00
45731;BME280;31440;48.584;13.460;2022-11-11T05:28:45;98422.44;;;2.19;100.00
45731;BME280;31440;48.584;13.460;2022-11-11T05:31:30;98432.97;;;2.33;100.00
45731;BME280;31440;48.584;13.460;2022-11-11T05:34:14;98435.63;;;2.38;100.00
45731;BME280;31440;48.584;13.460;2022-11-11T05:36:58;98448.00;;;2.59;100.00
45731;BME280;31440;48.584;13.460;2022-11-11T05:39:43;98452.22;;;2.55;100.00
45731;BME280;31440;48.584;13.460;2022-11-11T05:42:27;98458.66;;;2.33;100.00
45731;BME280;31440;48.584;13.460;2022-11-11T05:45:11;98469.00;;;2.38;100.00
45731;BME280;31440;48.584;13.460;2022-11-11T05:48:00;98475.72;;;2.31;100.00
45731;BME280;31440;48.584;13.460;2022-11-11T05:50:44;98477.94;;;2.14;100.00
45731;BME280;31440;48.584;13.460;2022-11-11T05:53:28;98483.28;;;2.24;100.00
45731;BME280;31440;48.584;13.460;2022-11-11T05:56:12;98480.84;;;2.30;100.00
45731;BME280;31440;48.584;13.460;2022-11-11T05:58:57;98472.78;;;2.57;100.00
45731;BME280;31440;48.584;13.460;2022-11-11T06:01:41;98480.16;;;2.38;100.00
45731;BME280;31440;48.584;13.460;2022-11-11T06:04:26;98480.75;;;2.25;100.00
45731;BME280;31440;48.584;13.460;2022-11-11T06:07:10;98483.34;;;2.27;100.00
45731;BME280;31440;48.584;13.460;2022-11-11T06:09:55;98490.34;;;2.35;100.00
45731;BME280;31440;48.584;13.460;2022-11-11T06:12:59;98471.34;;;2.26;100.00
45731;BME280;31440;48.584;13.460;2022-11-11T06:15:55;98491.94;;;2.30;100.00
45731;BME280;31440;48.584;13.460;2022-11-11T06:18:40;98487.25;;;2.08;100.00
45731;BME280;31440;48.584;13.460;2022-11-11T06:21:24;98490.50;;;2.01;100.00
45731;BME280;31440;48.584;13.460;2022-11-11T06:24:09;98495.84;;;2.10;100.00
45731;BME280;31440;48.584;13.460;2022-11-11T06:26:54;98500.50;;;2.29;100.00
45731;BME280;31440;48.584;13.460;2022-11-11T06:29:38;98502.03;;;2.21;100.00
45731;BME280;31440;48.584;13.460;2022-11-11T06:32:22;98503.84;;;2.25;100.00
45731;BME280;31440;48.584;13.460;2022-11-11T06:35:07;98514.28;;;2.34;100.00
45731;BME280;31440;48.584;13.460;2022-11-11T06:37:51;98514.16;;;2.27;100.00
45731;BME280;31440;48.584;13.460;2022-11-11T06:40:35;98517.88;;;2.42;100.00
45731;BME280;31440;48.584;13.460;2022-11-11T06:43:19;98522.97;;;2.41;100.00
45731;BME280;31440;48.584;13.460;2022-11-11T06:46:03;98533.09;;;2.33;100.00
45731;BME280;31440;48.584;13.460;2022-11-11T06:48:47;98532.94;;;2.26;100.00
45731;BME280;31440;48.584;13.460;2022-11-11T06:51:31;98537.09;;;2.21;100.00
45731;BME280;31440;48.584;13.460;2022-11-11T06:54:16;98537.34;;;2.33;100.00
45731;BME280;31440;48.584;13.460;2022-11-11T06:57:00;98540.53;;;2.21;100.00
45731;BME280;31440;48.584;13.460;2022-11-11T06:59:44;98542.00;;;2.50;100.00
45731;BME280;31440;48.584;13.460;2022-11-11T07:02:28;98538.28;;;2.36;100.00
45731;BME280;31440;48.584;13.460;2022-11-11T07:05:12;98542.63;;;2.39;100.00
45731;BME280;31440;48.584;13.460;2022-11-11T07:08:00;98546.38;;;2.56;100.00
45731;BME280;31440;48.584;13.460;2022-11-11T07:10:46;98518.66;;;2.38;100.00
45731;BME280;31440;48.584;13.460;2022-11-11T07:13:31;98539.38;;;2.49;100.00
45731;BME280;31440;48.584;13.460;2022-11-11T07:16:15;98534.34;;;2.53;100.00
45731;BME280;31440;48.584;13.460;2022-11-11T07:18:59;98536.78;;;2.46;100.00
45731;BME280;31440;48.584;13.460;2022-11-11T07:21:43;98531.19;;;2.67;100.00
45731;BME280;31440;48.584;13.460;2022-11-11T07:24:27;98529.75;;;2.81;100.00
45731;BME280;31440;48.584;13.460;2022-11-11T07:27:12;98528.09;;;2.83;100.00
45731;BME280;31440;48.584;13.460;2022-11-11T07:29:56;98529.22;;;2.99;100.00
45731;BME280;31440;48.584;13.460;2022-11-11T07:32:44;98531.81;;;3.02;100.00
45731;BME280;31440;48.584;13.460;2022-11-11T07:35:31;98528.47;;;2.59;100.00
45731;BME280;31440;48.584;13.460;2022-11-11T07:38:15;98532.56;;;2.95;100.00
45731;BME280;31440;48.584;13.460;2022-11-11T07:41:00;98527.81;;;2.69;100.00
45731;BME280;31440;48.584;13.460;2022-11-11T07:43:44;98532.66;;;2.99;100.00
45731;BME280;31440;48.584;13.460;2022-11-11T07:46:28;98529.06;;;2.91;100.00
45731;BME280;31440;48.584;13.460;2022-11-11T07:49:12;98514.44;;;2.87;100.00
45731;BME280;31440;48.584;13.460;2022-11-11T07:51:56;98514.44;;;2.87;100.00
45731;BME280;31440;48.584;13.460;2022-11-11T07:54:40;98513.09;;;2.61;100.00
45731;BME280;31440;48.584;13.460;2022-11-11T07:57:25;98513.03;;;3.04;100.00
45731;BME280;31440;48.584;13.460;2022-11-11T08:00:09;98519.69;;;2.46;100.00
45731;BME280;31440;48.584;13.460;2022-11-11T08:02:53;98512.56;;;2.78;100.00
45731;BME280;31440;48.584;13.460;2022-11-11T08:05:38;98518.78;;;2.91;100.00
45731;BME280;31440;48.584;13.460;2022-11-11T08:08:22;98522.44;;;3.04;100.00
45731;BME280;31440;48.584;13.460;2022-11-11T08:11:10;98529.91;;;2.90;100.00
45731;BME280;31440;48.584;13.460;2022-11-11T08:13:54;98529.56;;;3.20;100.00
45731;BME280;31440;48.584;13.460;2022-11-11T08:16:38;98520.06;;;3.67;100.00
45731;BME280;31440;48.584;13.460;2022-11-11T08:19:22;98523.75;;;3.86;100.00
45731;BME280;31440;48.584;13.460;2022-11-11T08:22:07;98534.66;;;3.68;100.00
45731;BME280;31440;48.584;13.460;2022-11-11T08:24:51;98533.44;;;4.01;100.00
45731;BME280;31440;48.584;13.460;2022-11-11T08:27:36;98532.00;;;3.64;100.00
45731;BME280;31440;48.584;13.460;2022-11-11T08:30:20;98530.72;;;3.90;100.00
45731;BME280;31440;48.584;13.460;2022-11-11T08:33:05;98525.22;;;4.29;100.00
45731;BME280;31440;48.584;13.460;2022-11-11T08:35:49;98523.78;;;4.52;100.00
45731;BME280;31440;48.584;13.460;2022-11-11T08:38:33;98525.59;;;4.58;100.00
45731;BME280;31440;48.584;13.460;2022-11-11T08:41:18;98519.50;;;4.53;100.00
45731;BME280;31440;48.584;13.460;2022-11-11T08:44:04;98530.88;;;4.70;100.00
45731;BME280;31440;48.584;13.460;2022-11-11T08:46:48;98526.84;;;4.95;100.00
45731;BME280;31440;48.584;13.460;2022-11-11T08:49:32;98533.44;;;4.70;100.00
45731;BME280;31440;48.584;13.460;2022-11-11T08:52:16;98531.63;;;4.63;100.00
45731;BME280;31440;48.584;13.460;2022-11-11T08:55:01;98534.59;;;4.96;100.00
45731;BME280;31440;48.584;13.460;2022-11-11T08:57:45;98539.38;;;4.63;100.00
45731;BME280;31440;48.584;13.460;2022-11-11T09:00:30;98542.34;;;5.01;100.00
45731;BME280;31440;48.584;13.460;2022-11-11T09:03:14;98536.59;;;5.26;100.00
45731;BME280;31440;48.584;13.460;2022-11-11T09:05:59;98557.63;;;4.80;100.00
45731;BME280;31440;48.584;13.460;2022-11-11T09:08:43;98551.84;;;5.05;100.00
45731;BME280;31440;48.584;13.460;2022-11-11T09:11:27;98555.56;;;5.31;100.00
45731;BME280;31440;48.584;13.460;2022-11-11T09:14:18;98568.00;;;4.89;100.00
45731;BME280;31440;48.584;13.460;2022-11-11T09:17:03;98571.72;;;5.14;100.00
45731;BME280;31440;48.584;13.460;2022-11-11T09:19:47;98575.09;;;5.08;100.00
45731;BME280;31440;48.584;13.460;2022-11-11T09:22:31;98575.97;;;5.10;100.00
45731;BME280;31440;48.584;13.460;2022-11-11T09:25:15;98575.53;;;5.52;100.00
45731;BME280;31440;48.584;13.460;2022-11-11T09:28:00;98562.75;;;5.68;100.00
45731;BME280;31440;48.584;13.460;2022-11-11T09:30:45;98564.56;;;5.82;100.00
45731;BME280;31440;48.584;13.460;2022-11-11T09:33:29;98562.47;;;5.34;100.00
45731;BME280;31440;48.584;13.460;2022-11-11T09:36:13;98563.47;;;5.50;100.00
45731;BME280;31440;48.584;13.460;2022-11-11T09:38:58;98575.59;;;5.63;100.00
45731;BME280;31440;48.584;13.460;2022-11-11T09:50:47;98569.13;;;6.21;100.00
45731;BME280;31440;48.584;13.460;2022-11-11T09:53:43;98568.09;;;5.95;100.00
45731;BME280;31440;48.584;13.460;2022-11-11T09:56:30;98555.34;;;6.25;100.00
45731;BME280;31440;48.584;13.460;2022-11-11T09:59:23;98553.28;;;5.68;100.00
45731;BME280;31440;48.584;13.460;2022-11-11T10:02:17;98560.50;;;6.19;100.00
45731;BME280;31440;48.584;13.460;2022-11-11T10:05:11;98578.44;;;5.98;100.00
45731;BME280;31440;48.584;13.460;2022-11-11T10:08:04;98564.47;;;5.69;100.00
45731;BME280;31440;48.584;13.460;2022-11-11T10:10:57;98560.91;;;5.56;100.00
45731;BME280;31440;48.584;13.460;2022-11-11T10:13:42;98566.69;;;6.40;100.00
45731;BME280;31440;48.584;13.460;2022-11-11T10:16:46;98565.81;;;6.38;100.00
45731;BME280;31440;48.584;13.460;2022-11-11T10:19:33;98574.53;;;6.62;100.00
45731;BME280;31440;48.584;13.460;2022-11-11T10:22:34;98577.09;;;6.56;100.00
45731;BME280;31440;48.584;13.460;2022-11-11T10:25:24;98579.75;;;6.72;100.00
45731;BME280;31440;48.584;13.460;2022-11-11T10:28:14;98569.41;;;6.72;100.00
45731;BME280;31440;48.584;13.460;2022-11-11T10:31:00;98548.69;;;6.64;100.00
45731;BME280;31440;48.584;13.460;2022-11-11T10:33:52;98545.25;;;6.66;100.00
45731;BME280;31440;48.584;13.460;2022-11-11T10:36:43;98534.72;;;6.31;100.00
45731;BME280;31440;48.584;13.460;2022-11-11T10:42:33;98538.34;;;6.64;100.00
45731;BME280;31440;48.584;13.460;2022-11-11T10:45:28;98539.22;;;6.69;100.00
45731;BME280;31440;48.584;13.460;2022-11-11T10:48:21;98526.28;;;6.64;100.00
45731;BME280;31440;48.584;13.460;2022-11-11T10:51:07;98527.22;;;6.77;100.00
45731;BME280;31440;48.584;13.460;2022-11-11T10:54:05;98533.16;;;6.62;100.00
45731;BME280;31440;48.584;13.460;2022-11-11T10:57:03;98526.44;;;7.54;100.00
45731;BME280;31440;48.584;13.460;2022-11-11T11:00:01;98529.00;;;7.21;100.00
45731;BME280;31440;48.584;13.460;2022-11-11T11:02:56;98537.63;;;7.70;100.00
45731;BME280;31440;48.584;13.460;2022-11-11T11:05:45;98537.59;;;8.06;100.00
45731;BME280;31440;48.584;13.460;2022-11-11T11:08:39;98527.22;;;8.05;100.00
45731;BME280;31440;48.584;13.460;2022-11-11T11:11:47;98520.31;;;8.05;100.00
45731;BME280;31440;48.584;13.460;2022-11-11T11:14:31;98509.91;;;8.36;100.00
45731;BME280;31440;48.584;13.460;2022-11-11T11:17:22;98502.19;;;8.12;100.00
45731;BME280;31440;48.584;13.460;2022-11-11T11:20:14;98498.72;;;8.11;100.00
45731;BME280;31440;48.584;13.460;2022-11-11T11:22:58;98501.78;;;9.04;100.00
45731;BME280;31440;48.584;13.460;2022-11-11T11:25:51;98494.88;;;10.04;100.00
45731;BME280;31440;48.584;13.460;2022-11-11T11:28:57;98495.75;;;10.02;100.00
45731;BME280;31440;48.584;13.460;2022-11-11T11:31:42;98494.59;;;11.54;100.00
45731;BME280;31440;48.584;13.460;2022-11-11T11:35:02;98499.84;;;10.24;100.00
45731;BME280;31440;48.584;13.460;2022-11-11T11:37:49;98493.41;;;12.20;100.00
45731;BME280;31440;48.584;13.460;2022-11-11T11:40:51;98480.13;;;11.86;100.00
45731;BME280;31440;48.584;13.460;2022-11-11T11:43:39;98485.81;;;12.08;100.00
45731;BME280;31440;48.584;13.460;2022-11-11T11:46:38;98490.75;;;12.68;100.00
45731;BME280;31440;48.584;13.460;2022-11-11T11:52:42;98492.88;;;12.87;100.00
45731;BME280;31440;48.584;13.460;2022-11-11T12:04:37;98483.91;;;13.01;100.00
45731;BME280;31440;48.584;13.460;2022-11-11T12:10:59;98475.56;;;12.45;100.00
45731;BME280;31440;48.584;13.460;2022-11-11T12:32:20;98480.91;;;10.16;100.00
45731;BME280;31440;48.584;13.460;2022-11-11T12:35:19;98466.03;;;10.27;100.00
45731;BME280;31440;48.584;13.460;2022-11-11T12:38:33;98473.59;;;10.45;100.00
45731;BME280;31440;48.584;13.460;2022-11-11T12:44:54;98469.88;;;9.94;100.00
45731;BME280;31440;48.584;13.460;2022-11-11T12:53:47;98465.47;;;10.71;100.00
45731;BME280;31440;48.584;13.460;2022-11-11T12:56:47;98453.53;;;11.16;100.00
45731;BME280;31440;48.584;13.460;2022-11-11T13:00:09;98457.50;;;11.88;100.00
45731;BME280;31440;48.584;13.460;2022-11-11T13:09:19;98444.28;;;13.20;97.30
45731;BME280;31440;48.584;13.460;2022-11-11T13:12:17;98446.06;;;13.55;99.12
45731;BME280;31440;48.584;13.460;2022-11-11T13:15:24;98442.72;;;13.12;98.03
45731;BME280;31440;48.584;13.460;2022-11-11T13:18:16;98433.31;;;14.08;89.84
45731;BME280;31440;48.584;13.460;2022-11-11T13:21:09;98433.00;;;14.48;85.34
45731;BME280;31440;48.584;13.460;2022-11-11T13:23:54;98422.81;;;14.98;77.87
45731;BME280;31440;48.584;13.460;2022-11-11T13:26:42;98426.25;;;14.71;80.64
45731;BME280;31440;48.584;13.460;2022-11-11T13:29:52;98434.38;;;14.91;79.70
45731;BME280;31440;48.584;13.460;2022-11-11T13:32:59;98439.50;;;14.35;79.94
45731;BME280;31440;48.584;13.460;2022-11-11T13:35:56;98410.03;;;14.30;74.04
45731;BME280;31440;48.584;13.460;2022-11-11T13:38:52;98430.31;;;14.22;77.26
45731;BME280;31440;48.584;13.460;2022-11-11T13:41:39;98427.94;;;14.13;78.75
45731;BME280;31440;48.584;13.460;2022-11-11T13:44:31;98428.81;;;13.11;85.11
45731;BME280;31440;48.584;13.460;2022-11-11T13:47:20;98435.53;;;13.91;81.70
45731;BME280;31440;48.584;13.460;2022-11-11T13:50:35;98441.19;;;14.38;77.29
45731;BME280;31440;48.584;13.460;2022-11-11T13:53:29;98446.28;;;14.42;78.06
45731;BME280;31440;48.584;13.460;2022-11-11T13:56:43;98439.78;;;13.61;80.54
45731;BME280;31440;48.584;13.460;2022-11-11T13:59:34;98449.75;;;12.71;87.38
45731;BME280;31440;48.584;13.460;2022-11-11T14:07:51;98448.16;;;11.26;98.26
45731;BME280;31440;48.584;13.460;2022-11-11T14:16:09;98449.94;;;10.65;100.00
45731;BME280;31440;48.584;13.460;2022-11-11T14:18:53;98444.38;;;10.27;100.00
45731;BME280;31440;48.584;13.460;2022-11-11T14:24:41;98447.13;;;10.16;100.00
45731;BME280;31440;48.584;13.460;2022-11-11T14:27:28;98449.94;;;9.95;100.00
45731;BME280;31440;48.584;13.460;2022-11-11T14:30:32;98441.28;;;9.94;100.00
45731;BME280;31440;48.584;13.460;2022-11-11T14:36:18;98458.63;;;10.63;100.00
45731;BME280;31440;48.584;13.460;2022-11-11T14:39:31;98467.09;;;10.11;100.00
45731;BME280;31440;48.584;13.460;2022-11-11T14:51:40;98452.88;;;8.37;100.00
45731;BME280;31440;48.584;13.460;2022-11-11T14:57:21;98458.09;;;8.24;100.00
45731;BME280;31440;48.584;13.460;2022-11-11T15:00:14;98467.66;;;8.19;100.00
45731;BME280;31440;48.584;13.460;2022-11-11T15:03:02;98465.03;;;8.13;100.00
45731;BME280;31440;48.584;13.460;2022-11-11T15:05:57;98477.19;;;7.97;100.00
45731;BME280;31440;48.584;13.460;2022-11-11T15:09:10;98464.28;;;7.77;100.00
45731;BME280;31440;48.584;13.460;2022-11-11T15:15:12;98462.59;;;7.62;100.00
45731;BME280;31440;48.584;13.460;2022-11-11T15:24:48;98475.50;;;7.74;100.00
45731;BME280;31440;48.584;13.460;2022-11-11T15:27:47;98490.09;;;8.15;100.00
45731;BME280;31440;48.584;13.460;2022-11-11T15:34:24;98467.75;;;7.32;100.00
45731;BME280;31440;48.584;13.460;2022-11-11T15:37:17;98467.78;;;7.12;100.00
45731;BME280;31440;48.584;13.460;2022-11-11T15:40:04;98474.66;;;6.95;100.00
45731;BME280;31440;48.584;13.460;2022-11-11T15:42:49;98481.53;;;6.96;100.00
45731;BME280;31440;48.584;13.460;2022-11-11T15:45:35;98480.69;;;6.89;100.00
45731;BME280;31440;48.584;13.460;2022-11-11T15:48:28;98460.84;;;6.75;100.00
45731;BME280;31440;48.584;13.460;2022-11-11T15:54:24;98470.31;;;6.82;100.00
45731;BME280;31440;48.584;13.460;2022-11-11T15:57:32;98460.88;;;6.90;100.00
45731;BME280;31440;48.584;13.460;2022-11-11T16:03:19;98453.09;;;7.14;100.00
45731;BME280;31440;48.584;13.460;2022-11-11T16:06:09;98460.00;;;7.14;100.00
45731;BME280;31440;48.584;13.460;2022-11-11T16:08:54;98476.41;;;7.45;100.00
45731;BME280;31440;48.584;13.460;2022-11-11T16:11:40;98477.28;;;7.45;100.00
45731;BME280;31440;48.584;13.460;2022-11-11T16:14:32;98472.94;;;7.39;100.00
45731;BME280;31440;48.584;13.460;2022-11-11T16:17:20;98453.97;;;7.09;100.00
45731;BME280;31440;48.584;13.460;2022-11-11T16:20:15;98476.41;;;7.31;100.00
45731;BME280;31440;48.584;13.460;2022-11-11T16:23:06;98487.59;;;7.37;100.00
45731;BME280;31440;48.584;13.460;2022-11-11T16:25:50;98483.28;;;7.33;100.00
45731;BME280;31440;48.584;13.460;2022-11-11T16:28:54;98489.31;;;7.07;100.00
45731;BME280;31440;48.584;13.460;2022-11-11T16:31:41;98485.03;;;7.24;100.00
45731;BME280;31440;48.584;13.460;2022-11-11T16:37:13;98488.47;;;7.15;100.00
45731;BME280;31440;48.584;13.460;2022-11-11T16:40:32;98489.31;;;7.07;100.00